Greymouth, New Zealand
Current Conditions -  °F | °C
As of 9:00 AM on Monday 24 Nov 2014 (Local Time) from NZCH Reporting Station
Clear Clear  
Wind Chill: 20°   Ceiling: Unl
Heat Index: 20°   Visibility: 6mi
Dew Point:   Wind: 5mph
Humidity: 49%   Direction: 190°S
Pressure: 29.91"   Gusts: NA
Location:  42.46°S, 171.21°E
Report Text: NZCH 232100Z AUTO 19004KT 130V230 9999 NCD 20/09 Q1013 NOSIG
Loading
Personal Weather Stations






























Interactive Weather Map New forecast layout! Learn more

10-Day Weather Forecast

Advertisements
Track Severe Weather on mobile